sensor_id;sensor_type;location;lat;lon;timestamp;temperature;humidity
19552;DHT22;9921;47.186;9.778;2022-10-16T00:01:06;14.90;99.90
19552;DHT22;9921;47.186;9.778;2022-10-16T00:03:34;14.90;99.90
19552;DHT22;9921;47.186;9.778;2022-10-16T00:06:02;14.90;99.90
19552;DHT22;9921;47.186;9.778;2022-10-16T00:08:29;14.80;99.90
19552;DHT22;9921;47.186;9.778;2022-10-16T00:11:01;14.70;99.90
19552;DHT22;9921;47.186;9.778;2022-10-16T00:13:28;14.70;99.90
19552;DHT22;9921;47.186;9.778;2022-10-16T00:15:56;14.80;99.90
19552;DHT22;9921;47.186;9.778;2022-10-16T00:18:23;14.80;99.90
19552;DHT22;9921;47.186;9.778;2022-10-16T00:20:52;14.80;99.90
19552;DHT22;9921;47.186;9.778;2022-10-16T00:23:19;14.90;99.90
19552;DHT22;9921;47.186;9.778;2022-10-16T00:25:54;15.00;99.90
19552;DHT22;9921;47.186;9.778;2022-10-16T00:28:22;15.00;99.90
19552;DHT22;9921;47.186;9.778;2022-10-16T00:30:49;15.10;99.90
19552;DHT22;9921;47.186;9.778;2022-10-16T00:33:16;15.00;99.90
19552;DHT22;9921;47.186;9.778;2022-10-16T00:35:43;15.00;99.90
19552;DHT22;9921;47.186;9.778;2022-10-16T00:38:11;15.10;99.90
19552;DHT22;9921;47.186;9.778;2022-10-16T00:40:38;15.10;99.90
19552;DHT22;9921;47.186;9.778;2022-10-16T00:43:12;15.10;99.90
19552;DHT22;9921;47.186;9.778;2022-10-16T00:45:39;15.10;99.90
19552;DHT22;9921;47.186;9.778;2022-10-16T00:48:09;15.20;99.90
19552;DHT22;9921;47.186;9.778;2022-10-16T00:50:39;15.10;99.90
19552;DHT22;9921;47.186;9.778;2022-10-16T00:53:08;15.00;99.90
19552;DHT22;9921;47.186;9.778;2022-10-16T00:55:37;15.00;99.90
19552;DHT22;9921;47.186;9.778;2022-10-16T00:58:05;15.00;99.90
19552;DHT22;9921;47.186;9.778;2022-10-16T01:00:32;15.00;99.90
19552;DHT22;9921;47.186;9.778;2022-10-16T01:03:01;14.90;99.90
19552;DHT22;9921;47.186;9.778;2022-10-16T01:05:33;14.90;99.90
19552;DHT22;9921;47.186;9.778;2022-10-16T01:08:05;15.00;99.90
19552;DHT22;9921;47.186;9.778;2022-10-16T01:10:39;15.00;99.90
19552;DHT22;9921;47.186;9.778;2022-10-16T01:13:09;15.00;99.90
19552;DHT22;9921;47.186;9.778;2022-10-16T01:15:40;14.90;99.90
19552;DHT22;9921;47.186;9.778;2022-10-16T01:18:13;14.90;99.90
19552;DHT22;9921;47.186;9.778;2022-10-16T01:20:45;14.90;99.90
19552;DHT22;9921;47.186;9.778;2022-10-16T01:23:27;14.90;99.90
19552;DHT22;9921;47.186;9.778;2022-10-16T01:26:31;14.90;99.90
19552;DHT22;9921;47.186;9.778;2022-10-16T01:29:06;15.00;99.90
19552;DHT22;9921;47.186;9.778;2022-10-16T01:31:37;15.00;99.90
19552;DHT22;9921;47.186;9.778;2022-10-16T01:34:10;15.00;99.90
19552;DHT22;9921;47.186;9.778;2022-10-16T01:36:45;14.90;99.90
19552;DHT22;9921;47.186;9.778;2022-10-16T01:39:14;15.00;99.90
19552;DHT22;9921;47.186;9.778;2022-10-16T01:41:44;14.90;99.90
19552;DHT22;9921;47.186;9.778;2022-10-16T01:44:19;14.80;99.90
19552;DHT22;9921;47.186;9.778;2022-10-16T01:46:49;14.80;99.90
19552;DHT22;9921;47.186;9.778;2022-10-16T01:49:18;14.80;99.90
19552;DHT22;9921;47.186;9.778;2022-10-16T01:51:48;14.80;99.90
19552;DHT22;9921;47.186;9.778;2022-10-16T01:54:18;14.80;99.90
19552;DHT22;9921;47.186;9.778;2022-10-16T01:56:47;14.80;99.90
19552;DHT22;9921;47.186;9.778;2022-10-16T01:59:19;14.80;99.90
19552;DHT22;9921;47.186;9.778;2022-10-16T02:01:49;14.90;99.90
19552;DHT22;9921;47.186;9.778;2022-10-16T02:04:20;14.90;99.90
19552;DHT22;9921;47.186;9.778;2022-10-16T02:06:48;14.90;99.90
19552;DHT22;9921;47.186;9.778;2022-10-16T02:09:15;15.00;99.90
19552;DHT22;9921;47.186;9.778;2022-10-16T02:11:42;15.00;99.90
19552;DHT22;9921;47.186;9.778;2022-10-16T02:14:09;14.90;99.90
19552;DHT22;9921;47.186;9.778;2022-10-16T02:16:40;14.90;99.90
19552;DHT22;9921;47.186;9.778;2022-10-16T02:19:08;15.00;99.90
19552;DHT22;9921;47.186;9.778;2022-10-16T02:21:41;15.00;99.90
19552;DHT22;9921;47.186;9.778;2022-10-16T02:24:15;15.10;99.90
19552;DHT22;9921;47.186;9.778;2022-10-16T02:26:48;15.00;99.90
19552;DHT22;9921;47.186;9.778;2022-10-16T02:29:20;15.10;99.90
19552;DHT22;9921;47.186;9.778;2022-10-16T02:31:53;15.00;99.90
19552;DHT22;9921;47.186;9.778;2022-10-16T02:34:23;15.10;99.90
19552;DHT22;9921;47.186;9.778;2022-10-16T02:36:52;15.10;99.90
19552;DHT22;9921;47.186;9.778;2022-10-16T02:39:20;15.10;99.90
19552;DHT22;9921;47.186;9.778;2022-10-16T02:41:47;15.00;99.90
19552;DHT22;9921;47.186;9.778;2022-10-16T02:44:14;14.90;99.90
19552;DHT22;9921;47.186;9.778;2022-10-16T02:46:41;14.90;99.90
19552;DHT22;9921;47.186;9.778;2022-10-16T02:49:09;15.00;99.90
19552;DHT22;9921;47.186;9.778;2022-10-16T02:51:36;14.90;99.90
19552;DHT22;9921;47.186;9.778;2022-10-16T02:54:04;14.90;99.90
19552;DHT22;9921;47.186;9.778;2022-10-16T02:56:30;15.00;99.90
19552;DHT22;9921;47.186;9.778;2022-10-16T02:58:57;15.00;99.90
19552;DHT22;9921;47.186;9.778;2022-10-16T03:01:24;15.00;99.90
19552;DHT22;9921;47.186;9.778;2022-10-16T03:03:51;15.00;99.90
19552;DHT22;9921;47.186;9.778;2022-10-16T03:06:19;15.00;99.90
19552;DHT22;9921;47.186;9.778;2022-10-16T03:08:46;15.00;99.90
19552;DHT22;9921;47.186;9.778;2022-10-16T03:11:13;15.00;99.90
19552;DHT22;9921;47.186;9.778;2022-10-16T03:13:40;14.90;99.90
19552;DHT22;9921;47.186;9.778;2022-10-16T03:16:07;15.00;99.90
19552;DHT22;9921;47.186;9.778;2022-10-16T03:18:34;15.00;99.90
19552;DHT22;9921;47.186;9.778;2022-10-16T03:21:01;15.00;99.90
19552;DHT22;9921;47.186;9.778;2022-10-16T03:23:29;15.00;99.90
19552;DHT22;9921;47.186;9.778;2022-10-16T03:25:56;15.00;99.90
19552;DHT22;9921;47.186;9.778;2022-10-16T03:28:23;14.90;99.90
19552;DHT22;9921;47.186;9.778;2022-10-16T03:30:49;15.00;99.90
19552;DHT22;9921;47.186;9.778;2022-10-16T03:33:16;14.90;99.90
19552;DHT22;9921;47.186;9.778;2022-10-16T03:35:50;14.90;99.90
19552;DHT22;9921;47.186;9.778;2022-10-16T03:38:17;14.70;99.90
19552;DHT22;9921;47.186;9.778;2022-10-16T03:40:45;14.60;99.90
19552;DHT22;9921;47.186;9.778;2022-10-16T03:43:12;14.70;99.90
19552;DHT22;9921;47.186;9.778;2022-10-16T03:45:39;14.70;99.90
19552;DHT22;9921;47.186;9.778;2022-10-16T03:48:09;14.70;99.90
19552;DHT22;9921;47.186;9.778;2022-10-16T03:50:36;14.70;99.90
19552;DHT22;9921;47.186;9.778;2022-10-16T03:53:03;14.70;99.90
19552;DHT22;9921;47.186;9.778;2022-10-16T03:55:29;14.70;99.90
19552;DHT22;9921;47.186;9.778;2022-10-16T03:57:58;14.70;99.90
19552;DHT22;9921;47.186;9.778;2022-10-16T04:00:25;14.70;99.90
19552;DHT22;9921;47.186;9.778;2022-10-16T04:02:52;14.70;99.90
19552;DHT22;9921;47.186;9.778;2022-10-16T04:05:19;14.70;99.90
19552;DHT22;9921;47.186;9.778;2022-10-16T04:07:45;14.70;99.90
19552;DHT22;9921;47.186;9.778;2022-10-16T04:10:12;14.70;99.90
19552;DHT22;9921;47.186;9.778;2022-10-16T04:12:39;14.80;99.90
19552;DHT22;9921;47.186;9.778;2022-10-16T04:15:08;14.70;99.90
19552;DHT22;9921;47.186;9.778;2022-10-16T04:17:35;14.60;99.90
19552;DHT22;9921;47.186;9.778;2022-10-16T04:20:03;14.60;99.90
19552;DHT22;9921;47.186;9.778;2022-10-16T04:22:30;14.70;99.90
19552;DHT22;9921;47.186;9.778;2022-10-16T04:24:57;14.70;99.90
19552;DHT22;9921;47.186;9.778;2022-10-16T04:27:24;14.60;99.90
19552;DHT22;9921;47.186;9.778;2022-10-16T04:29:50;14.70;99.90
19552;DHT22;9921;47.186;9.778;2022-10-16T04:32:19;14.50;99.90
19552;DHT22;9921;47.186;9.778;2022-10-16T04:34:45;14.40;99.90
19552;DHT22;9921;47.186;9.778;2022-10-16T04:37:12;14.40;99.90
19552;DHT22;9921;47.186;9.778;2022-10-16T04:39:39;14.30;99.90
19552;DHT22;9921;47.186;9.778;2022-10-16T04:42:06;14.20;99.90
19552;DHT22;9921;47.186;9.778;2022-10-16T04:44:33;14.20;99.90
19552;DHT22;9921;47.186;9.778;2022-10-16T04:47:00;14.10;99.90
19552;DHT22;9921;47.186;9.778;2022-10-16T04:49:28;14.20;99.90
19552;DHT22;9921;47.186;9.778;2022-10-16T04:51:55;14.20;99.90
19552;DHT22;9921;47.186;9.778;2022-10-16T04:54:22;14.20;99.90
19552;DHT22;9921;47.186;9.778;2022-10-16T04:56:48;14.10;99.90
19552;DHT22;9921;47.186;9.778;2022-10-16T04:59:18;14.10;99.90
19552;DHT22;9921;47.186;9.778;2022-10-16T05:01:45;14.10;99.90
19552;DHT22;9921;47.186;9.778;2022-10-16T05:04:12;14.00;99.90
19552;DHT22;9921;47.186;9.778;2022-10-16T05:06:41;13.90;99.90
19552;DHT22;9921;47.186;9.778;2022-10-16T05:09:09;13.90;99.90
19552;DHT22;9921;47.186;9.778;2022-10-16T05:11:36;14.00;99.90
19552;DHT22;9921;47.186;9.778;2022-10-16T05:14:03;13.90;99.90
19552;DHT22;9921;47.186;9.778;2022-10-16T05:16:30;13.90;99.90
19552;DHT22;9921;47.186;9.778;2022-10-16T05:18:56;13.90;99.90
19552;DHT22;9921;47.186;9.778;2022-10-16T05:21:23;13.90;99.90
19552;DHT22;9921;47.186;9.778;2022-10-16T05:23:52;13.90;99.90
19552;DHT22;9921;47.186;9.778;2022-10-16T05:26:19;13.90;99.90
19552;DHT22;9921;47.186;9.778;2022-10-16T05:28:47;14.00;99.90
19552;DHT22;9921;47.186;9.778;2022-10-16T05:31:14;14.00;99.90
19552;DHT22;9921;47.186;9.778;2022-10-16T05:33:41;14.00;99.90
19552;DHT22;9921;47.186;9.778;2022-10-16T05:36:09;14.00;99.90
19552;DHT22;9921;47.186;9.778;2022-10-16T05:38:37;14.00;99.90
19552;DHT22;9921;47.186;9.778;2022-10-16T05:41:05;13.70;99.90
19552;DHT22;9921;47.186;9.778;2022-10-16T05:43:32;13.80;99.90
19552;DHT22;9921;47.186;9.778;2022-10-16T05:46:01;13.80;99.90
19552;DHT22;9921;47.186;9.778;2022-10-16T05:48:28;13.90;99.90
19552;DHT22;9921;47.186;9.778;2022-10-16T05:50:59;13.90;99.90
19552;DHT22;9921;47.186;9.778;2022-10-16T05:53:27;14.00;99.90
19552;DHT22;9921;47.186;9.778;2022-10-16T05:55:55;14.00;99.90
19552;DHT22;9921;47.186;9.778;2022-10-16T05:58:24;13.90;99.90
19552;DHT22;9921;47.186;9.778;2022-10-16T06:00:55;14.00;99.90
19552;DHT22;9921;47.186;9.778;2022-10-16T06:03:23;14.00;99.90
19552;DHT22;9921;47.186;9.778;2022-10-16T06:05:50;14.00;99.90
19552;DHT22;9921;47.186;9.778;2022-10-16T06:08:17;14.00;99.90
19552;DHT22;9921;47.186;9.778;2022-10-16T06:10:44;14.10;99.90
19552;DHT22;9921;47.186;9.778;2022-10-16T06:13:11;14.10;99.90
19552;DHT22;9921;47.186;9.778;2022-10-16T06:15:41;14.20;99.90
19552;DHT22;9921;47.186;9.778;2022-10-16T06:18:08;14.10;99.90
19552;DHT22;9921;47.186;9.778;2022-10-16T06:20:35;14.00;99.90
19552;DHT22;9921;47.186;9.778;2022-10-16T06:23:02;13.90;99.90
19552;DHT22;9921;47.186;9.778;2022-10-16T06:25:30;13.90;99.90
19552;DHT22;9921;47.186;9.778;2022-10-16T06:27:57;13.90;99.90
19552;DHT22;9921;47.186;9.778;2022-10-16T06:30:24;13.90;99.90
19552;DHT22;9921;47.186;9.778;2022-10-16T06:32:52;13.90;99.90
19552;DHT22;9921;47.186;9.778;2022-10-16T06:35:19;13.90;99.90
19552;DHT22;9921;47.186;9.778;2022-10-16T06:37:46;14.00;99.90
19552;DHT22;9921;47.186;9.778;2022-10-16T06:40:13;14.00;99.90
19552;DHT22;9921;47.186;9.778;2022-10-16T06:42:41;14.00;99.90
19552;DHT22;9921;47.186;9.778;2022-10-16T06:45:08;14.10;99.90
19552;DHT22;9921;47.186;9.778;2022-10-16T06:47:35;14.20;99.90
19552;DHT22;9921;47.186;9.778;2022-10-16T06:50:04;14.30;99.90
19552;DHT22;9921;47.186;9.778;2022-10-16T06:52:33;14.30;99.90
19552;DHT22;9921;47.186;9.778;2022-10-16T06:55:00;14.30;99.90
19552;DHT22;9921;47.186;9.778;2022-10-16T06:57:28;14.40;99.90
19552;DHT22;9921;47.186;9.778;2022-10-16T06:59:55;14.60;99.90
19552;DHT22;9921;47.186;9.778;2022-10-16T07:02:22;14.60;99.90
19552;DHT22;9921;47.186;9.778;2022-10-16T07:04:49;14.60;99.90
19552;DHT22;9921;47.186;9.778;2022-10-16T07:07:17;14.60;99.90
19552;DHT22;9921;47.186;9.778;2022-10-16T07:09:44;14.60;99.90
19552;DHT22;9921;47.186;9.778;2022-10-16T07:12:10;14.70;99.90
19552;DHT22;9921;47.186;9.778;2022-10-16T07:14:38;14.80;99.90
19552;DHT22;9921;47.186;9.778;2022-10-16T07:17:04;14.80;99.90
19552;DHT22;9921;47.186;9.778;2022-10-16T07:19:31;14.80;99.90
19552;DHT22;9921;47.186;9.778;2022-10-16T07:21:59;14.90;99.90
19552;DHT22;9921;47.186;9.778;2022-10-16T07:24:27;15.00;99.90
19552;DHT22;9921;47.186;9.778;2022-10-16T07:26:54;15.30;99.90
19552;DHT22;9921;47.186;9.778;2022-10-16T07:29:21;15.30;99.90
19552;DHT22;9921;47.186;9.778;2022-10-16T07:31:48;15.40;99.90
19552;DHT22;9921;47.186;9.778;2022-10-16T07:34:17;15.50;99.90
19552;DHT22;9921;47.186;9.778;2022-10-16T07:36:47;15.50;99.90
19552;DHT22;9921;47.186;9.778;2022-10-16T07:39:14;15.60;99.90
19552;DHT22;9921;47.186;9.778;2022-10-16T07:41:42;15.50;99.90
19552;DHT22;9921;47.186;9.778;2022-10-16T07:44:09;15.50;99.90
19552;DHT22;9921;47.186;9.778;2022-10-16T07:46:36;15.50;99.90
19552;DHT22;9921;47.186;9.778;2022-10-16T07:49:03;15.70;99.90
19552;DHT22;9921;47.186;9.778;2022-10-16T07:51:30;15.70;99.90
19552;DHT22;9921;47.186;9.778;2022-10-16T07:53:57;15.70;99.90
19552;DHT22;9921;47.186;9.778;2022-10-16T07:56:24;15.70;99.90
19552;DHT22;9921;47.186;9.778;2022-10-16T07:58:52;15.80;99.90
19552;DHT22;9921;47.186;9.778;2022-10-16T08:01:19;15.90;99.90
19552;DHT22;9921;47.186;9.778;2022-10-16T08:03:48;16.20;99.90
19552;DHT22;9921;47.186;9.778;2022-10-16T08:06:15;16.30;99.90
19552;DHT22;9921;47.186;9.778;2022-10-16T08:08:43;16.60;99.90
19552;DHT22;9921;47.186;9.778;2022-10-16T08:11:09;16.90;99.90
19552;DHT22;9921;47.186;9.778;2022-10-16T08:13:36;17.10;99.90
19552;DHT22;9921;47.186;9.778;2022-10-16T08:16:06;17.40;99.90
19552;DHT22;9921;47.186;9.778;2022-10-16T08:18:34;17.70;99.90
19552;DHT22;9921;47.186;9.778;2022-10-16T08:21:02;17.80;99.90
19552;DHT22;9921;47.186;9.778;2022-10-16T08:23:30;18.00;99.90
19552;DHT22;9921;47.186;9.778;2022-10-16T08:26:03;18.00;99.90
19552;DHT22;9921;47.186;9.778;2022-10-16T08:28:30;18.00;99.90
19552;DHT22;9921;47.186;9.778;2022-10-16T08:31:06;18.00;99.90
19552;DHT22;9921;47.186;9.778;2022-10-16T08:33:34;17.80;99.90
19552;DHT22;9921;47.186;9.778;2022-10-16T08:36:02;17.70;99.90
19552;DHT22;9921;47.186;9.778;2022-10-16T08:38:28;17.60;99.90
19552;DHT22;9921;47.186;9.778;2022-10-16T08:41:02;17.60;99.90
19552;DHT22;9921;47.186;9.778;2022-10-16T08:43:42;17.60;99.90
19552;DHT22;9921;47.186;9.778;2022-10-16T08:46:25;17.70;99.90
19552;DHT22;9921;47.186;9.778;2022-10-16T08:48:57;17.70;99.90
19552;DHT22;9921;47.186;9.778;2022-10-16T08:51:25;17.80;99.90
19552;DHT22;9921;47.186;9.778;2022-10-16T08:53:55;18.00;99.90
19552;DHT22;9921;47.186;9.778;2022-10-16T08:56:23;18.10;99.90
19552;DHT22;9921;47.186;9.778;2022-10-16T08:58:51;18.30;99.90
19552;DHT22;9921;47.186;9.778;2022-10-16T09:01:22;18.50;99.90
19552;DHT22;9921;47.186;9.778;2022-10-16T09:04:03;18.60;99.90
19552;DHT22;9921;47.186;9.778;2022-10-16T09:06:41;18.80;99.90
19552;DHT22;9921;47.186;9.778;2022-10-16T09:09:38;19.00;99.90
19552;DHT22;9921;47.186;9.778;2022-10-16T09:12:14;19.10;99.90
19552;DHT22;9921;47.186;9.778;2022-10-16T09:14:52;19.30;99.90
19552;DHT22;9921;47.186;9.778;2022-10-16T09:17:30;19.60;99.90
19552;DHT22;9921;47.186;9.778;2022-10-16T09:20:17;19.80;99.90
19552;DHT22;9921;47.186;9.778;2022-10-16T09:22:45;20.10;99.90
19552;DHT22;9921;47.186;9.778;2022-10-16T09:25:13;20.40;99.90
19552;DHT22;9921;47.186;9.778;2022-10-16T09:27:42;20.90;99.90
19552;DHT22;9921;47.186;9.778;2022-10-16T09:30:13;22.00;99.90
19552;DHT22;9921;47.186;9.778;2022-10-16T09:32:43;23.70;99.90
19552;DHT22;9921;47.186;9.778;2022-10-16T09:35:14;25.60;99.90
19552;DHT22;9921;47.186;9.778;2022-10-16T09:37:43;27.80;99.90
19552;DHT22;9921;47.186;9.778;2022-10-16T09:40:23;29.60;99.90
19552;DHT22;9921;47.186;9.778;2022-10-16T09:42:52;31.00;99.90
19552;DHT22;9921;47.186;9.778;2022-10-16T09:45:22;32.30;99.60
19552;DHT22;9921;47.186;9.778;2022-10-16T09:47:51;32.70;98.30
19552;DHT22;9921;47.186;9.778;2022-10-16T09:50:23;32.80;95.90
19552;DHT22;9921;47.186;9.778;2022-10-16T09:53:03;32.50;93.80
19552;DHT22;9921;47.186;9.778;2022-10-16T09:55:30;32.50;92.90
19552;DHT22;9921;47.186;9.778;2022-10-16T09:57:57;32.60;91.50
19552;DHT22;9921;47.186;9.778;2022-10-16T10:00:24;32.80;91.10
19552;DHT22;9921;47.186;9.778;2022-10-16T10:02:53;33.20;89.20
19552;DHT22;9921;47.186;9.778;2022-10-16T10:05:22;34.50;85.50
19552;DHT22;9921;47.186;9.778;2022-10-16T10:07:55;35.50;83.30
19552;DHT22;9921;47.186;9.778;2022-10-16T10:10:24;36.60;78.50
19552;DHT22;9921;47.186;9.778;2022-10-16T10:12:52;37.00;75.10
19552;DHT22;9921;47.186;9.778;2022-10-16T10:15:19;37.30;71.40
19552;DHT22;9921;47.186;9.778;2022-10-16T10:17:49;37.60;71.70
19552;DHT22;9921;47.186;9.778;2022-10-16T10:20:23;38.00;72.50
19552;DHT22;9921;47.186;9.778;2022-10-16T10:22:51;37.60;71.10
19552;DHT22;9921;47.186;9.778;2022-10-16T10:25:41;36.30;71.00
19552;DHT22;9921;47.186;9.778;2022-10-16T10:31:05;35.00;71.90
19552;DHT22;9921;47.186;9.778;2022-10-16T10:33:40;35.10;71.60
19552;DHT22;9921;47.186;9.778;2022-10-16T10:36:18;35.40;70.20
19552;DHT22;9921;47.186;9.778;2022-10-16T10:38:49;35.90;70.00
19552;DHT22;9921;47.186;9.778;2022-10-16T10:41:53;36.80;66.50
19552;DHT22;9921;47.186;9.778;2022-10-16T10:44:35;37.70;64.50
19552;DHT22;9921;47.186;9.778;2022-10-16T10:47:10;38.80;62.00
19552;DHT22;9921;47.186;9.778;2022-10-16T10:49:51;39.40;59.90
19552;DHT22;9921;47.186;9.778;2022-10-16T10:52:39;39.10;59.80
19552;DHT22;9921;47.186;9.778;2022-10-16T10:55:19;38.10;59.40
19552;DHT22;9921;47.186;9.778;2022-10-16T10:58:00;36.90;61.60
19552;DHT22;9921;47.186;9.778;2022-10-16T11:00:35;36.30;62.80
19552;DHT22;9921;47.186;9.778;2022-10-16T11:03:17;36.30;62.30
19552;DHT22;9921;47.186;9.778;2022-10-16T11:05:50;36.60;59.20
19552;DHT22;9921;47.186;9.778;2022-10-16T11:08:25;36.80;59.20
19552;DHT22;9921;47.186;9.778;2022-10-16T11:10:57;37.60;61.30
19552;DHT22;9921;47.186;9.778;2022-10-16T11:13:31;38.00;59.70
19552;DHT22;9921;47.186;9.778;2022-10-16T11:16:01;37.60;58.80
19552;DHT22;9921;47.186;9.778;2022-10-16T11:18:33;36.60;59.00
19552;DHT22;9921;47.186;9.778;2022-10-16T11:21:10;35.90;60.40
19552;DHT22;9921;47.186;9.778;2022-10-16T11:23:43;35.30;60.80
19552;DHT22;9921;47.186;9.778;2022-10-16T11:26:18;35.00;60.60
19552;DHT22;9921;47.186;9.778;2022-10-16T11:28:49;35.10;62.10
19552;DHT22;9921;47.186;9.778;2022-10-16T11:31:19;35.10;59.70
19552;DHT22;9921;47.186;9.778;2022-10-16T11:33:52;35.40;59.20
19552;DHT22;9921;47.186;9.778;2022-10-16T11:36:25;36.40;61.80
19552;DHT22;9921;47.186;9.778;2022-10-16T11:39:00;36.40;58.70
19552;DHT22;9921;47.186;9.778;2022-10-16T11:41:32;37.00;59.70
19552;DHT22;9921;47.186;9.778;2022-10-16T11:44:14;37.00;58.70
19552;DHT22;9921;47.186;9.778;2022-10-16T11:46:48;36.90;59.40
19552;DHT22;9921;47.186;9.778;2022-10-16T11:49:20;37.00;58.50
19552;DHT22;9921;47.186;9.778;2022-10-16T11:51:55;36.60;59.10
19552;DHT22;9921;47.186;9.778;2022-10-16T11:54:34;36.50;61.20
19552;DHT22;9921;47.186;9.778;2022-10-16T11:57:08;37.50;60.40
19552;DHT22;9921;47.186;9.778;2022-10-16T11:59:42;38.50;58.90
19552;DHT22;9921;47.186;9.778;2022-10-16T12:02:28;39.20;58.10
19552;DHT22;9921;47.186;9.778;2022-10-16T12:05:05;39.80;56.30
19552;DHT22;9921;47.186;9.778;2022-10-16T12:07:39;40.30;55.20
19552;DHT22;9921;47.186;9.778;2022-10-16T12:10:20;40.30;54.40
19552;DHT22;9921;47.186;9.778;2022-10-16T12:12:48;40.10;55.00
19552;DHT22;9921;47.186;9.778;2022-10-16T12:15:21;40.70;52.20
19552;DHT22;9921;47.186;9.778;2022-10-16T12:17:49;41.30;50.50
19552;DHT22;9921;47.186;9.778;2022-10-16T12:20:23;41.50;52.80
19552;DHT22;9921;47.186;9.778;2022-10-16T12:22:52;41.40;50.90
19552;DHT22;9921;47.186;9.778;2022-10-16T12:25:25;40.80;51.90
19552;DHT22;9921;47.186;9.778;2022-10-16T12:27:55;40.50;51.20
19552;DHT22;9921;47.186;9.778;2022-10-16T12:30:24;39.70;51.70
19552;DHT22;9921;47.186;9.778;2022-10-16T12:32:56;39.10;54.10
19552;DHT22;9921;47.186;9.778;2022-10-16T12:35:26;38.90;51.90
19552;DHT22;9921;47.186;9.778;2022-10-16T12:37:54;39.20;54.40
19552;DHT22;9921;47.186;9.778;2022-10-16T12:40:34;39.80;50.70
19552;DHT22;9921;47.186;9.778;2022-10-16T12:43:12;39.50;52.10
19552;DHT22;9921;47.186;9.778;2022-10-16T12:45:40;39.40;52.00
19552;DHT22;9921;47.186;9.778;2022-10-16T12:48:21;38.90;52.90
19552;DHT22;9921;47.186;9.778;2022-10-16T12:50:48;38.50;53.40
19552;DHT22;9921;47.186;9.778;2022-10-16T12:53:19;39.00;54.20
19552;DHT22;9921;47.186;9.778;2022-10-16T12:55:55;39.10;54.00
19552;DHT22;9921;47.186;9.778;2022-10-16T12:58:52;38.20;53.10
19552;DHT22;9921;47.186;9.778;2022-10-16T13:01:32;37.40;53.90
19552;DHT22;9921;47.186;9.778;2022-10-16T13:04:17;37.90;54.40
19552;DHT22;9921;47.186;9.778;2022-10-16T13:06:51;38.00;53.70
19552;DHT22;9921;47.186;9.778;2022-10-16T13:09:31;37.60;53.60
19552;DHT22;9921;47.186;9.778;2022-10-16T13:12:16;37.00;54.90
19552;DHT22;9921;47.186;9.778;2022-10-16T13:14:57;37.80;55.60
19552;DHT22;9921;47.186;9.778;2022-10-16T13:17:31;38.30;55.10
19552;DHT22;9921;47.186;9.778;2022-10-16T13:20:11;37.90;53.60
19552;DHT22;9921;47.186;9.778;2022-10-16T13:22:48;37.90;54.70
19552;DHT22;9921;47.186;9.778;2022-10-16T13:25:22;37.90;54.00
19552;DHT22;9921;47.186;9.778;2022-10-16T13:27:55;37.30;56.60
19552;DHT22;9921;47.186;9.778;2022-10-16T13:30:25;37.20;57.20
19552;DHT22;9921;47.186;9.778;2022-10-16T13:32:58;37.50;55.00
19552;DHT22;9921;47.186;9.778;2022-10-16T13:35:27;37.40;53.90
19552;DHT22;9921;47.186;9.778;2022-10-16T13:38:13;36.30;55.40
19552;DHT22;9921;47.186;9.778;2022-10-16T13:40:54;35.90;58.80
19552;DHT22;9921;47.186;9.778;2022-10-16T13:43:26;36.10;57.60
19552;DHT22;9921;47.186;9.778;2022-10-16T13:45:58;36.10;57.40
19552;DHT22;9921;47.186;9.778;2022-10-16T13:48:26;36.30;57.30
19552;DHT22;9921;47.186;9.778;2022-10-16T13:51:04;36.50;57.00
19552;DHT22;9921;47.186;9.778;2022-10-16T13:53:33;36.50;56.10
19552;DHT22;9921;47.186;9.778;2022-10-16T13:56:01;36.00;58.10
19552;DHT22;9921;47.186;9.778;2022-10-16T13:58:30;35.80;56.90
19552;DHT22;9921;47.186;9.778;2022-10-16T14:00:58;35.40;58.20
19552;DHT22;9921;47.186;9.778;2022-10-16T14:03:26;35.10;58.10
19552;DHT22;9921;47.186;9.778;2022-10-16T14:05:55;35.10;57.10
19552;DHT22;9921;47.186;9.778;2022-10-16T14:08:25;35.20;57.30
19552;DHT22;9921;47.186;9.778;2022-10-16T14:10:55;35.40;57.30
19552;DHT22;9921;47.186;9.778;2022-10-16T14:13:31;35.60;57.40
19552;DHT22;9921;47.186;9.778;2022-10-16T14:16:01;35.30;57.70
19552;DHT22;9921;47.186;9.778;2022-10-16T14:18:29;34.90;58.40
19552;DHT22;9921;47.186;9.778;2022-10-16T14:21:03;34.90;59.00
19552;DHT22;9921;47.186;9.778;2022-10-16T14:23:32;35.00;58.90
19552;DHT22;9921;47.186;9.778;2022-10-16T14:26:22;35.30;57.50
19552;DHT22;9921;47.186;9.778;2022-10-16T14:29:03;35.40;57.90
19552;DHT22;9921;47.186;9.778;2022-10-16T14:31:32;35.40;59.60
19552;DHT22;9921;47.186;9.778;2022-10-16T14:34:01;35.20;60.00
19552;DHT22;9921;47.186;9.778;2022-10-16T14:36:29;35.20;60.70
19552;DHT22;9921;47.186;9.778;2022-10-16T14:39:00;35.30;59.20
19552;DHT22;9921;47.186;9.778;2022-10-16T14:41:29;35.40;57.80
19552;DHT22;9921;47.186;9.778;2022-10-16T14:44:02;35.50;58.50
19552;DHT22;9921;47.186;9.778;2022-10-16T14:46:33;35.30;56.70
19552;DHT22;9921;47.186;9.778;2022-10-16T14:49:03;35.20;56.10
19552;DHT22;9921;47.186;9.778;2022-10-16T14:51:31;34.70;57.60
19552;DHT22;9921;47.186;9.778;2022-10-16T14:53:58;34.30;57.40
19552;DHT22;9921;47.186;9.778;2022-10-16T14:56:29;34.20;58.20
19552;DHT22;9921;47.186;9.778;2022-10-16T14:58:58;33.70;59.40
19552;DHT22;9921;47.186;9.778;2022-10-16T15:01:25;33.50;58.20
19552;DHT22;9921;47.186;9.778;2022-10-16T15:03:52;33.30;58.00
19552;DHT22;9921;47.186;9.778;2022-10-16T15:06:20;33.10;59.70
19552;DHT22;9921;47.186;9.778;2022-10-16T15:08:47;32.80;61.40
19552;DHT22;9921;47.186;9.778;2022-10-16T15:11:16;32.70;61.90
19552;DHT22;9921;47.186;9.778;2022-10-16T15:13:44;32.30;61.90
19552;DHT22;9921;47.186;9.778;2022-10-16T15:16:14;31.90;63.70
19552;DHT22;9921;47.186;9.778;2022-10-16T15:18:41;31.30;64.20
19552;DHT22;9921;47.186;9.778;2022-10-16T15:21:09;30.70;64.70
19552;DHT22;9921;47.186;9.778;2022-10-16T15:23:37;30.00;65.60
19552;DHT22;9921;47.186;9.778;2022-10-16T15:26:04;29.40;68.30
19552;DHT22;9921;47.186;9.778;2022-10-16T15:28:31;28.90;70.30
19552;DHT22;9921;47.186;9.778;2022-10-16T15:30:58;28.20;71.30
19552;DHT22;9921;47.186;9.778;2022-10-16T15:33:27;27.70;74.50
19552;DHT22;9921;47.186;9.778;2022-10-16T15:35:58;27.30;76.10
19552;DHT22;9921;47.186;9.778;2022-10-16T15:38:26;26.70;76.90
19552;DHT22;9921;47.186;9.778;2022-10-16T15:40:54;26.40;81.10
19552;DHT22;9921;47.186;9.778;2022-10-16T15:43:21;26.20;78.90
19552;DHT22;9921;47.186;9.778;2022-10-16T15:45:58;26.00;80.10
19552;DHT22;9921;47.186;9.778;2022-10-16T15:48:27;25.90;83.20
19552;DHT22;9921;47.186;9.778;2022-10-16T15:50:54;25.50;82.90
19552;DHT22;9921;47.186;9.778;2022-10-16T15:53:21;25.00;88.00
19552;DHT22;9921;47.186;9.778;2022-10-16T15:55:48;24.70;89.20
19552;DHT22;9921;47.186;9.778;2022-10-16T15:58:15;24.50;89.80
19552;DHT22;9921;47.186;9.778;2022-10-16T16:00:42;24.20;89.50
19552;DHT22;9921;47.186;9.778;2022-10-16T16:03:09;24.10;90.00
19552;DHT22;9921;47.186;9.778;2022-10-16T16:05:39;23.90;91.50
19552;DHT22;9921;47.186;9.778;2022-10-16T16:08:06;23.60;91.90